Time,TemperatureF,DewpointF,PressureIn,WindDirection,WindDirectionDegrees,WindSpeedMPH,WindSpeedGustMPH,Humidity,HourlyPrecipIn,Conditions,Clouds,dailyrainin,SoftwareType,DateUTC
2013-10-16 00:01:00,76.0,70.5,29.99,South,180,1.0,3.0,83,0.00,,CLR,0.00,VWS V12.08,2013-10-16 05:01:00,
2013-10-16 00:06:00,76.0,70.5,29.99,South,180,1.0,1.0,83,0.00,,CLR,0.00,VWS V12.08,2013-10-16 05:06:00,
2013-10-16 00:11:00,76.0,70.5,29.99,SSE,158,5.0,5.0,83,0.00,,CLR,0.00,VWS V12.08,2013-10-16 05:11:00,
2013-10-16 00:16:00,76.0,70.5,29.99,SSE,158,1.0,1.0,83,0.00,,CLR,0.00,VWS V12.08,2013-10-16 05:16:00,
2013-10-16 00:21:00,76.0,70.5,29.98,SSE,158,1.0,1.0,83,0.00,,CLR,0.00,VWS V12.08,2013-10-16 05:21:00,
2013-10-16 00:26:00,76.0,70.8,29.98,South,180,2.0,4.0,84,0.00,,CLR,0.00,VWS V12.08,2013-10-16 05:26:00,
2013-10-16 00:31:00,76.0,70.5,29.99,SE,135,2.0,3.0,83,0.00,,CLR,0.00,VWS V12.08,2013-10-16 05:31:00,
2013-10-16 00:36:00,75.0,69.5,29.98,South,180,1.0,1.0,83,0.00,,CLR,0.00,VWS V12.08,2013-10-16 05:36:00,
2013-10-16 00:41:00,75.0,69.8,29.98,ESE,112,3.0,3.0,84,0.00,,CLR,0.00,VWS V12.08,2013-10-16 05:41:00,
2013-10-16 00:46:00,75.0,69.8,29.98,South,180,1.0,1.0,84,0.00,,CLR,0.00,VWS V12.08,2013-10-16 05:46:00,
2013-10-16 00:51:00,75.0,69.8,29.98,SE,135,1.0,1.0,84,0.00,,CLR,0.00,VWS V12.08,2013-10-16 05:51:00,
2013-10-16 00:56:00,75.0,69.8,29.98,South,180,0.0,1.0,84,0.00,,CLR,0.00,VWS V12.08,2013-10-16 05:56:00,
2013-10-16 01:01:00,75.0,69.8,29.97,ESE,112,3.0,3.0,84,0.00,,CLR,0.00,VWS V12.08,2013-10-16 06:01:00,
2013-10-16 01:06:00,75.0,70.2,29.97,SSE,158,5.0,5.0,85,0.00,,CLR,0.00,VWS V12.08,2013-10-16 06:06:00,
2013-10-16 01:11:00,75.0,70.2,29.97,South,180,1.0,3.0,85,0.00,,CLR,0.00,VWS V12.08,2013-10-16 06:11:00,
2013-10-16 01:16:00,75.0,70.2,29.97,SSE,158,2.0,2.0,85,0.00,,CLR,0.00,VWS V12.08,2013-10-16 06:16:00,
2013-10-16 01:21:00,75.0,70.2,29.97,SE,135,1.0,2.0,85,0.00,,CLR,0.00,VWS V12.08,2013-10-16 06:21:00,
2013-10-16 01:26:00,75.0,70.2,29.97,SSE,158,1.0,1.0,85,0.00,,CLR,0.00,VWS V12.08,2013-10-16 06:26:00,
2013-10-16 01:31:00,75.0,70.2,29.97,South,180,3.0,3.0,85,0.00,,CLR,0.00,VWS V12.08,2013-10-16 06:31:00,
2013-10-16 01:36:00,75.0,70.2,29.96,SSE,158,1.0,1.0,85,0.00,,CLR,0.00,VWS V12.08,2013-10-16 06:36:00,
2013-10-16 01:41:00,75.0,70.2,29.96,South,180,2.0,2.0,85,0.00,,CLR,0.00,VWS V12.08,2013-10-16 06:41:00,
2013-10-16 01:46:00,75.0,70.2,29.96,SE,135,3.0,3.0,85,0.00,,CLR,0.00,VWS V12.08,2013-10-16 06:46:00,
2013-10-16 01:51:00,75.0,70.2,29.96,SE,135,3.0,3.0,85,0.00,,CLR,0.00,VWS V12.08,2013-10-16 06:51:00,
2013-10-16 01:56:00,75.0,70.2,29.95,South,180,3.0,3.0,85,0.00,,CLR,0.00,VWS V12.08,2013-10-16 06:56:00,
2013-10-16 02:01:00,75.0,70.2,29.95,SSE,158,3.0,3.0,85,0.00,,CLR,0.00,VWS V12.08,2013-10-16 07:01:00,
2013-10-16 02:06:00,75.0,70.2,29.95,South,180,3.0,3.0,85,0.00,,CLR,0.00,VWS V12.08,2013-10-16 07:06:00,
2013-10-16 02:11:00,75.0,70.2,29.95,SE,135,0.0,1.0,85,0.00,,CLR,0.00,VWS V12.08,2013-10-16 07:11:00,
2013-10-16 02:16:00,75.0,70.2,29.96,South,180,1.0,1.0,85,0.00,,CLR,0.00,VWS V12.08,2013-10-16 07:16:00,
2013-10-16 02:21:00,75.0,70.2,29.96,SE,135,2.0,3.0,85,0.00,,CLR,0.00,VWS V12.08,2013-10-16 07:21:00,
2013-10-16 02:26:00,74.0,69.6,29.95,SSE,158,1.0,2.0,86,0.00,,CLR,0.00,VWS V12.08,2013-10-16 07:26:00,
2013-10-16 02:31:00,74.0,69.6,29.95,SSE,158,1.0,2.0,86,0.00,,CLR,0.00,VWS V12.08,2013-10-16 07:31:00,
2013-10-16 02:35:00,74.0,69.6,29.95,SE,135,0.0,2.0,86,0.00,,CLR,0.00,VWS V12.08,2013-10-16 07:35:00,
2013-10-16 02:40:00,74.0,69.6,29.94,SSE,158,3.0,4.0,86,0.00,,CLR,0.00,VWS V12.08,2013-10-16 07:40:00,
2013-10-16 02:45:00,74.0,69.6,29.94,SSE,158,1.0,3.0,86,0.00,,CLR,0.00,VWS V12.08,2013-10-16 07:45:00,
2013-10-16 02:50:00,74.0,69.9,29.94,SSE,158,1.0,3.0,87,0.00,,CLR,0.00,VWS V12.08,2013-10-16 07:50:00,
2013-10-16 02:55:00,74.0,69.9,29.94,South,180,3.0,4.0,87,0.00,,CLR,0.00,VWS V12.08,2013-10-16 07:55:00,
2013-10-16 03:00:00,74.0,69.9,29.94,ESE,112,2.0,5.0,87,0.00,,CLR,0.00,VWS V12.08,2013-10-16 08:00:00,
2013-10-16 03:05:00,74.0,69.9,29.94,SSE,158,0.0,0.0,87,0.00,,CLR,0.00,VWS V12.08,2013-10-16 08:05:00,
2013-10-16 03:10:00,74.0,69.9,29.94,SSE,158,1.0,2.0,87,0.00,,CLR,0.00,VWS V12.08,2013-10-16 08:10:00,
2013-10-16 03:15:00,74.0,69.9,29.94,SE,135,0.0,1.0,87,0.00,,CLR,0.00,VWS V12.08,2013-10-16 08:15:00,
2013-10-16 03:20:00,74.0,69.9,29.94,SE,135,1.0,1.0,87,0.00,,CLR,0.00,VWS V12.08,2013-10-16 08:20:00,
2013-10-16 03:25:00,74.0,69.9,29.94,SE,135,1.0,1.0,87,0.00,,CLR,0.00,VWS V12.08,2013-10-16 08:25:00,
2013-10-16 03:30:00,74.0,69.9,29.94,ENE,68,0.0,1.0,87,0.00,,CLR,0.00,VWS V12.08,2013-10-16 08:30:00,
2013-10-16 03:35:00,74.0,69.9,29.94,South,180,1.0,1.0,87,0.00,,CLR,0.00,VWS V12.08,2013-10-16 08:35:00,
2013-10-16 03:40:00,74.0,69.9,29.94,South,180,1.0,3.0,87,0.00,,CLR,0.00,VWS V12.08,2013-10-16 08:40:00,
2013-10-16 03:45:00,73.0,68.9,29.94,South,180,1.0,2.0,87,0.00,,CLR,0.00,VWS V12.08,2013-10-16 08:45:00,
2013-10-16 03:50:00,73.0,69.2,29.94,South,180,0.0,0.0,88,0.00,,CLR,0.00,VWS V12.08,2013-10-16 08:50:00,
2013-10-16 03:55:00,73.0,69.2,29.94,SSE,158,0.0,0.0,88,0.00,,CLR,0.00,VWS V12.08,2013-10-16 08:55:00,
2013-10-16 04:00:00,73.0,69.2,29.94,SSE,158,0.0,0.0,88,0.00,,CLR,0.00,VWS V12.08,2013-10-16 09:00:00,
2013-10-16 04:05:00,73.0,69.2,29.94,SSW,202,0.0,0.0,88,0.00,,CLR,0.00,VWS V12.08,2013-10-16 09:05:00,
2013-10-16 04:10:00,73.0,69.2,29.95,South,180,0.0,0.0,88,0.00,,CLR,0.00,VWS V12.08,2013-10-16 09:10:00,
2013-10-16 04:15:00,73.0,69.2,29.95,South,180,1.0,1.0,88,0.00,,CLR,0.00,VWS V12.08,2013-10-16 09:15:00,
2013-10-16 04:20:00,73.0,69.2,29.95,SE,135,0.0,1.0,88,0.00,,CLR,0.00,VWS V12.08,2013-10-16 09:20:00,
2013-10-16 04:25:00,73.0,69.6,29.95,South,180,0.0,1.0,89,0.00,,CLR,0.00,VWS V12.08,2013-10-16 09:25:00,
2013-10-16 04:30:00,73.0,69.6,29.95,SSE,158,0.0,1.0,89,0.00,,CLR,0.00,VWS V12.08,2013-10-16 09:30:00,
2013-10-16 04:35:00,73.0,69.6,29.95,South,180,0.0,1.0,89,0.00,,CLR,0.00,VWS V12.08,2013-10-16 09:35:00,
2013-10-16 04:40:00,73.0,69.6,29.95,SSE,158,0.0,0.0,89,0.00,,CLR,0.00,VWS V12.08,2013-10-16 09:40:00,
2013-10-16 04:45:00,73.0,69.6,29.95,SSE,158,0.0,0.0,89,0.00,,CLR,0.00,VWS V12.08,2013-10-16 09:45:00,
2013-10-16 04:50:00,73.0,69.6,29.95,South,180,0.0,0.0,89,0.00,,CLR,0.00,VWS V12.08,2013-10-16 09:50:00,
2013-10-16 04:55:00,73.0,69.6,29.95,SSE,158,0.0,0.0,89,0.00,,CLR,0.00,VWS V12.08,2013-10-16 09:55:00,
2013-10-16 05:00:00,73.0,69.6,29.96,SSE,158,0.0,0.0,89,0.00,,CLR,0.00,VWS V12.08,2013-10-16 10:00:00,
2013-10-16 05:05:00,73.0,69.6,29.96,SSE,158,0.0,0.0,89,0.00,,CLR,0.00,VWS V12.08,2013-10-16 10:05:00,
2013-10-16 05:10:00,73.0,69.6,29.96,South,180,0.0,0.0,89,0.00,,CLR,0.00,VWS V12.08,2013-10-16 10:10:00,
2013-10-16 05:16:00,73.0,69.9,29.96,East,90,1.0,1.0,90,0.00,,CLR,0.00,VWS V12.08,2013-10-16 10:16:00,
2013-10-16 05:21:00,73.0,69.9,29.97,SSE,158,0.0,0.0,90,0.00,,CLR,0.00,VWS V12.08,2013-10-16 10:21:00,
2013-10-16 05:26:00,73.0,69.9,29.97,SSE,158,0.0,0.0,90,0.00,,CLR,0.00,VWS V12.08,2013-10-16 10:26:00,
2013-10-16 05:31:00,73.0,69.9,29.97,ENE,68,0.0,0.0,90,0.00,,CLR,0.00,VWS V12.08,2013-10-16 10:31:00,
2013-10-16 05:36:00,73.0,69.9,29.96,SSE,158,0.0,0.0,90,0.00,,CLR,0.00,VWS V12.08,2013-10-16 10:36:00,
2013-10-16 05:41:00,73.0,69.9,29.96,WNW,292,0.0,0.0,90,0.00,,SCT250,0.00,VWS V12.08,2013-10-16 10:41:00,
2013-10-16 05:46:00,73.0,69.9,29.97,South,180,0.0,1.0,90,0.00,,SCT250,0.00,VWS V12.08,2013-10-16 10:46:00,
2013-10-16 05:51:00,73.0,69.9,29.97,South,180,0.0,1.0,90,0.00,,SCT250,0.00,VWS V12.08,2013-10-16 10:51:00,
2013-10-16 05:56:00,73.0,69.9,29.98,South,180,0.0,0.0,90,0.00,,SCT250,0.00,VWS V12.08,2013-10-16 10:56:00,
2013-10-16 06:00:00,73.0,69.9,29.98,South,180,0.0,0.0,90,0.00,,SCT250,0.00,VWS V12.08,2013-10-16 11:00:00,
2013-10-16 06:05:00,73.0,69.9,29.98,South,180,0.0,0.0,90,0.00,,SCT250,0.00,VWS V12.08,2013-10-16 11:05:00,
2013-10-16 06:10:00,72.0,69.2,29.98,SSE,158,1.0,5.0,91,0.00,,SCT250,0.00,VWS V12.08,2013-10-16 11:10:00,
2013-10-16 06:15:00,72.0,69.2,29.98,South,180,1.0,1.0,91,0.00,,SCT250,0.00,VWS V12.08,2013-10-16 11:15:00,
2013-10-16 06:20:00,72.0,69.2,29.98,SSW,202,1.0,1.0,91,0.00,,SCT250,0.00,VWS V12.08,2013-10-16 11:20:00,
2013-10-16 06:25:00,72.0,69.2,29.99,SE,135,0.0,0.0,91,0.00,,SCT250,0.00,VWS V12.08,2013-10-16 11:25:00,
2013-10-16 06:30:00,72.0,69.2,29.99,SSE,158,0.0,1.0,91,0.00,,SCT250,0.00,VWS V12.08,2013-10-16 11:30:00,
2013-10-16 06:35:00,72.0,69.6,29.98,WNW,292,3.0,3.0,92,0.00,,SCT250,0.00,VWS V12.08,2013-10-16 11:35:00,
2013-10-16 06:40:00,72.0,69.6,29.99,SSW,202,3.0,4.0,92,0.00,,BKN042,0.00,VWS V12.08,2013-10-16 11:40:00,
2013-10-16 06:45:00,72.0,69.6,29.99,WSW,248,1.0,1.0,92,0.00,,BKN042,0.00,VWS V12.08,2013-10-16 11:45:00,
2013-10-16 06:50:00,72.0,69.6,29.99,West,270,3.0,3.0,92,0.00,,BKN042,0.00,VWS V12.08,2013-10-16 11:50:00,
2013-10-16 06:55:00,72.0,69.6,29.99,SE,135,1.0,5.0,92,0.00,,BKN042,0.00,VWS V12.08,2013-10-16 11:55:00,
2013-10-16 07:01:00,72.0,69.6,29.99,SW,225,1.0,2.0,92,0.00,,BKN042,0.00,VWS V12.08,2013-10-16 12:01:00,
2013-10-16 07:06:00,72.0,69.6,29.99,WSW,248,0.0,0.0,92,0.00,,BKN042,0.00,VWS V12.08,2013-10-16 12:06:00,
2013-10-16 07:11:00,71.0,68.6,30.00,SSW,202,1.0,4.0,92,0.00,,BKN042,0.00,VWS V12.08,2013-10-16 12:11:00,
2013-10-16 07:16:00,71.0,68.6,29.99,North,0,1.0,4.0,92,0.00,,BKN042,0.00,VWS V12.08,2013-10-16 12:16:00,
2013-10-16 07:21:00,71.0,68.6,29.99,SE,135,0.0,3.0,92,0.00,,BKN042,0.00,VWS V12.08,2013-10-16 12:21:00,
2013-10-16 07:26:00,71.0,68.6,29.99,WSW,248,5.0,5.0,92,0.00,,BKN042,0.00,VWS V12.08,2013-10-16 12:26:00,
2013-10-16 07:31:00,71.0,68.9,30.00,WSW,248,3.0,5.0,93,0.00,,BKN042,0.00,VWS V12.08,2013-10-16 12:31:00,
2013-10-16 07:35:00,71.0,68.9,30.00,SSE,158,1.0,5.0,93,0.00,,BKN042,0.00,VWS V12.08,2013-10-16 12:35:00,
2013-10-16 07:40:00,71.0,68.9,30.00,NNW,338,2.0,5.0,93,0.00,,BKN042,0.00,VWS V12.08,2013-10-16 12:40:00,
2013-10-16 07:45:00,71.0,68.9,30.00,North,0,3.0,6.0,93,0.00,,BKN042,0.00,VWS V12.08,2013-10-16 12:45:00,
2013-10-16 07:50:00,71.0,68.9,30.00,SSW,202,0.0,3.0,93,0.00,,BKN042,0.00,VWS V12.08,2013-10-16 12:50:00,
2013-10-16 07:55:00,71.0,68.9,30.00,WNW,292,3.0,6.0,93,0.00,,BKN042,0.00,VWS V12.08,2013-10-16 12:55:00,
2013-10-16 08:00:00,71.0,68.9,30.00,ENE,68,1.0,4.0,93,0.00,,BKN075,0.00,VWS V12.08,2013-10-16 13:00:00,
2013-10-16 08:05:00,71.0,68.9,30.01,North,0,2.0,3.0,93,0.00,,BKN075,0.00,VWS V12.08,2013-10-16 13:05:00,
2013-10-16 08:10:00,70.0,67.9,30.01,ESE,112,1.0,5.0,93,0.00,,BKN075,0.00,VWS V12.08,2013-10-16 13:10:00,
2013-10-16 08:15:00,70.0,67.6,30.01,East,90,0.0,3.0,92,0.00,,BKN075,0.00,VWS V12.08,2013-10-16 13:15:00,
2013-10-16 08:20:00,70.0,67.6,30.01,SW,225,3.0,6.0,92,0.00,,BKN075,0.00,VWS V12.08,2013-10-16 13:20:00,
2013-10-16 08:25:00,70.0,67.6,30.01,WSW,248,3.0,5.0,92,0.00,,BKN075,0.00,VWS V12.08,2013-10-16 13:25:00,
2013-10-16 08:30:00,69.0,66.6,30.01,WNW,292,3.0,3.0,92,0.00,,BKN075,0.00,VWS V12.08,2013-10-16 13:30:00,
2013-10-16 08:35:00,69.0,66.6,30.01,WNW,292,3.0,6.0,92,0.00,,BKN075,0.00,VWS V12.08,2013-10-16 13:35:00,
2013-10-16 08:40:00,69.0,66.6,30.01,North,0,3.0,3.0,92,0.00,,BKN075,0.00,VWS V12.08,2013-10-16 13:40:00,
2013-10-16 08:45:00,69.0,66.6,30.00,NNE,22,3.0,6.0,92,0.00,,BKN075,0.00,VWS V12.08,2013-10-16 13:45:00,
2013-10-16 08:50:00,68.0,65.6,30.00,NNE,22,6.0,7.0,92,0.00,,BKN075,0.00,VWS V12.08,2013-10-16 13:50:00,
2013-10-16 08:55:00,68.0,65.6,30.00,NW,315,4.0,6.0,92,0.00,,BKN075,0.00,VWS V12.08,2013-10-16 13:55:00,
2013-10-16 09:00:00,68.0,65.6,30.00,NNW,338,4.0,5.0,92,0.00,,BKN075,0.00,VWS V12.08,2013-10-16 14:00:00,
2013-10-16 09:05:00,68.0,65.9,30.00,North,0,7.0,8.0,93,0.00,,BKN075,0.00,VWS V12.08,2013-10-16 14:05:00,
2013-10-16 09:10:00,68.0,65.9,30.00,North,0,5.0,6.0,93,0.00,,BKN075,0.00,VWS V12.08,2013-10-16 14:10:00,
2013-10-16 09:15:00,68.0,65.6,30.00,North,0,3.0,5.0,92,0.00,,BKN075,0.00,VWS V12.08,2013-10-16 14:15:00,
2013-10-16 09:20:00,69.0,66.6,30.01,North,0,3.0,4.0,92,0.00,,BKN075,0.00,VWS V12.08,2013-10-16 14:20:00,
2013-10-16 09:25:00,69.0,66.9,30.02,WSW,248,2.0,3.0,93,0.00,,BKN075,0.00,VWS V12.08,2013-10-16 14:25:00,
2013-10-16 09:30:00,69.0,66.6,30.02,NW,315,4.0,5.0,92,0.00,,BKN075,0.00,VWS V12.08,2013-10-16 14:30:00,
2013-10-16 09:35:00,69.0,66.6,30.02,NNW,338,5.0,5.0,92,0.00,,BKN075,0.00,VWS V12.08,2013-10-16 14:35:00,
2013-10-16 09:40:00,69.0,66.6,30.02,NNE,22,2.0,4.0,92,0.00,,,0.00,VWS V12.08,2013-10-16 14:40:00,
2013-10-16 09:45:00,69.0,66.3,30.02,South,180,1.0,1.0,91,0.00,,,0.00,VWS V12.08,2013-10-16 14:45:00,
2013-10-16 09:50:00,70.0,67.3,30.03,SW,225,0.0,3.0,91,0.00,,,0.00,VWS V12.08,2013-10-16 14:50:00,
2013-10-16 09:55:00,70.0,67.3,30.03,SW,225,1.0,3.0,91,0.00,,,0.00,VWS V12.08,2013-10-16 14:55:00,
2013-10-16 10:00:00,70.0,66.9,30.02,NE,45,2.0,6.0,90,0.00,,,0.00,VWS V12.08,2013-10-16 15:00:00,
2013-10-16 10:05:00,70.0,66.9,30.03,SSE,158,0.0,1.0,90,0.00,,,0.00,VWS V12.08,2013-10-16 15:05:00,
2013-10-16 10:10:00,70.0,66.6,30.03,NNW,338,1.0,3.0,89,0.00,,,0.00,VWS V12.08,2013-10-16 15:10:00,
2013-10-16 10:15:00,70.0,66.6,30.03,NW,315,3.0,5.0,89,0.00,,,0.00,VWS V12.08,2013-10-16 15:15:00,
2013-10-16 10:20:00,70.0,66.6,30.02,NNE,22,4.0,4.0,89,0.00,,,0.00,VWS V12.08,2013-10-16 15:20:00,
2013-10-16 10:25:00,70.0,66.6,30.03,SSE,158,1.0,2.0,89,0.00,,,0.00,VWS V12.08,2013-10-16 15:25:00,
2013-10-16 10:30:00,71.0,67.3,30.03,NW,315,4.0,5.0,88,0.00,,,0.00,VWS V12.08,2013-10-16 15:30:00,
2013-10-16 10:35:00,71.0,67.3,30.02,North,0,5.0,5.0,88,0.00,,,0.00,VWS V12.08,2013-10-16 15:35:00,
2013-10-16 10:40:00,71.0,66.9,30.03,NW,315,3.0,6.0,87,0.00,,,0.00,VWS V12.08,2013-10-16 15:40:00,
2013-10-16 10:45:00,71.0,66.9,30.04,NNW,338,4.0,4.0,87,0.00,,,0.00,VWS V12.08,2013-10-16 15:45:00,
2013-10-16 10:50:00,71.0,66.6,30.04,ENE,68,1.0,3.0,86,0.00,,,0.00,VWS V12.08,2013-10-16 15:50:00,
2013-10-16 10:55:00,71.0,66.6,30.04,West,270,3.0,7.0,86,0.00,,,0.00,VWS V12.08,2013-10-16 15:55:00,
2013-10-16 11:00:00,71.0,66.6,30.04,SW,225,2.0,4.0,86,0.00,,,0.00,VWS V12.08,2013-10-16 16:00:00,
2013-10-16 11:05:00,71.0,66.6,30.04,SW,225,2.0,4.0,86,0.00,,,0.00,VWS V12.08,2013-10-16 16:05:00,
2013-10-16 11:10:00,71.0,66.3,30.04,NW,315,2.0,3.0,85,0.00,,,0.00,VWS V12.08,2013-10-16 16:10:00,
2013-10-16 11:15:00,71.0,65.9,30.04,West,270,2.0,5.0,84,0.00,,,0.00,VWS V12.08,2013-10-16 16:15:00,
2013-10-16 11:20:00,71.0,65.9,30.04,NNW,338,2.0,6.0,84,0.00,,,0.00,VWS V12.08,2013-10-16 16:20:00,
2013-10-16 11:25:00,71.0,65.9,30.04,North,0,5.0,5.0,84,0.00,,,0.00,VWS V12.08,2013-10-16 16:25:00,
2013-10-16 11:30:00,71.0,65.9,30.04,SW,225,1.0,3.0,84,0.00,,,0.00,VWS V12.08,2013-10-16 16:30:00,
2013-10-16 11:35:00,71.0,66.3,30.04,SSE,158,1.0,3.0,85,0.00,,,0.00,VWS V12.08,2013-10-16 16:35:00,
2013-10-16 11:40:00,71.0,66.3,30.03,NNW,338,1.0,5.0,85,0.00,,OVC007,0.00,VWS V12.08,2013-10-16 16:40:00,
2013-10-16 11:45:00,71.0,66.3,30.04,NNW,338,2.0,3.0,85,0.00,,OVC007,0.00,VWS V12.08,2013-10-16 16:45:00,
2013-10-16 11:50:00,72.0,66.9,30.03,NW,315,2.0,3.0,84,0.00,,OVC007,0.00,VWS V12.08,2013-10-16 16:50:00,
2013-10-16 11:55:00,72.0,66.6,30.03,North,0,3.0,6.0,83,0.00,,OVC007,0.00,VWS V12.08,2013-10-16 16:55:00,
2013-10-16 12:00:00,72.0,66.6,30.03,North,0,4.0,5.0,83,0.00,,OVC011,0.00,VWS V12.08,2013-10-16 17:00:00,
2013-10-16 12:05:00,72.0,66.2,30.03,NW,315,3.0,5.0,82,0.00,,OVC011,0.00,VWS V12.08,2013-10-16 17:05:00,
2013-10-16 12:10:00,72.0,66.6,30.03,WSW,248,3.0,7.0,83,0.00,,OVC011,0.00,VWS V12.08,2013-10-16 17:10:00,
2013-10-16 12:15:00,73.0,67.5,30.03,North,0,4.0,4.0,83,0.00,,OVC011,0.00,VWS V12.08,2013-10-16 17:15:00,
2013-10-16 12:20:00,73.0,67.2,30.03,NNW,338,5.0,6.0,82,0.00,,OVC011,0.00,VWS V12.08,2013-10-16 17:20:00,
2013-10-16 12:25:00,73.0,67.2,30.03,North,0,5.0,5.0,82,0.00,,OVC011,0.00,VWS V12.08,2013-10-16 17:25:00,
2013-10-16 12:30:00,74.0,68.2,30.03,NNE,22,3.0,6.0,82,0.00,,OVC011,0.00,VWS V12.08,2013-10-16 17:30:00,
2013-10-16 12:35:00,74.0,67.8,30.03,NW,315,2.0,5.0,81,0.00,,OVC011,0.00,VWS V12.08,2013-10-16 17:35:00,
2013-10-16 12:40:00,74.0,67.8,30.03,North,0,2.0,3.0,81,0.00,,BKN100,0.00,VWS V12.08,2013-10-16 17:40:00,
2013-10-16 12:45:00,74.0,67.4,30.03,North,0,4.0,4.0,80,0.00,,BKN100,0.00,VWS V12.08,2013-10-16 17:45:00,
2013-10-16 12:50:00,74.0,67.4,30.02,NW,315,2.0,4.0,80,0.00,,BKN100,0.00,VWS V12.08,2013-10-16 17:50:00,
2013-10-16 12:55:00,74.0,67.4,30.02,SE,135,2.0,3.0,80,0.00,,BKN100,0.00,VWS V12.08,2013-10-16 17:55:00,
2013-10-16 13:00:00,74.0,67.4,30.02,North,0,5.0,5.0,80,0.00,,OVC025,0.00,VWS V12.08,2013-10-16 18:00:00,
2013-10-16 13:05:00,74.0,67.8,30.01,WNW,292,2.0,3.0,81,0.00,,OVC025,0.00,VWS V12.08,2013-10-16 18:05:00,
2013-10-16 13:10:00,74.0,67.4,30.01,North,0,5.0,6.0,80,0.00,,OVC025,0.00,VWS V12.08,2013-10-16 18:10:00,
2013-10-16 13:15:00,74.0,67.8,30.02,WSW,248,1.0,1.0,81,0.00,,OVC025,0.00,VWS V12.08,2013-10-16 18:15:00,
2013-10-16 13:20:00,74.0,67.8,30.02,WSW,248,2.0,3.0,81,0.00,,OVC025,0.00,VWS V12.08,2013-10-16 18:20:00,
2013-10-16 13:25:00,74.0,67.8,30.01,SW,225,3.0,4.0,81,0.00,,OVC025,0.00,VWS V12.08,2013-10-16 18:25:00,
2013-10-16 13:27:00,74.0,67.8,30.01,West,270,1.0,5.0,81,0.00,,OVC025,0.00,VWS V12.08,2013-10-16 18:27:00,
2013-10-16 13:32:00,74.0,67.4,30.01,SW,225,2.0,6.0,80,0.00,,OVC025,0.00,VWS V12.08,2013-10-16 18:32:00,
2013-10-16 13:37:00,74.0,67.4,30.01,WNW,292,1.0,2.0,80,0.00,,OVC025,0.00,VWS V12.08,2013-10-16 18:37:00,
2013-10-16 13:42:00,74.0,67.4,30.00,WSW,248,2.0,6.0,80,0.00,,OVC025,0.00,VWS V12.08,2013-10-16 18:42:00,
2013-10-16 13:47:00,74.0,67.4,30.00,WNW,292,3.0,7.0,80,0.00,,OVC025,0.00,VWS V12.08,2013-10-16 18:47:00,
2013-10-16 13:52:00,73.0,66.5,29.99,West,270,1.0,1.0,80,0.00,,OVC025,0.00,VWS V12.08,2013-10-16 18:52:00,
2013-10-16 13:57:00,73.0,66.8,29.99,WSW,248,1.0,4.0,81,0.00,,OVC025,0.00,VWS V12.08,2013-10-16 18:57:00,
2013-10-16 14:02:00,73.0,67.2,29.99,West,270,2.0,4.0,82,0.00,,OVC025,0.00,VWS V12.08,2013-10-16 19:02:00,
2013-10-16 14:07:00,73.0,67.9,29.99,WNW,292,1.0,4.0,84,0.00,,OVC025,0.00,VWS V12.08,2013-10-16 19:07:00,
2013-10-16 14:12:00,73.0,68.2,29.99,North,0,0.0,1.0,85,0.00,,OVC025,0.00,VWS V12.08,2013-10-16 19:12:00,
2013-10-16 14:17:00,72.0,67.6,29.99,SSW,202,1.0,3.0,86,0.00,,OVC025,0.00,VWS V12.08,2013-10-16 19:17:00,
2013-10-16 14:22:00,72.0,68.3,29.99,South,180,0.0,3.0,88,0.00,,OVC025,0.00,VWS V12.08,2013-10-16 19:22:00,
2013-10-16 14:27:00,72.0,68.3,29.99,SSE,158,0.0,1.0,88,0.00,,OVC025,0.00,VWS V12.08,2013-10-16 19:27:00,
2013-10-16 14:32:00,72.0,68.6,29.98,SSW,202,0.0,1.0,89,0.01,,OVC025,0.01,VWS V12.08,2013-10-16 19:32:00,
2013-10-16 14:37:00,72.0,68.9,29.98,South,180,1.0,3.0,90,0.01,,OVC025,0.01,VWS V12.08,2013-10-16 19:37:00,
2013-10-16 14:42:00,71.0,67.9,29.98,SSW,202,1.0,1.0,90,0.01,,OVC020,0.01,VWS V12.08,2013-10-16 19:42:00,
2013-10-16 14:47:00,71.0,67.9,29.98,SW,225,0.0,2.0,90,0.01,,OVC020,0.01,VWS V12.08,2013-10-16 19:47:00,
2013-10-16 14:52:00,72.0,69.6,29.98,SE,135,2.0,6.0,92,0.01,,OVC020,0.01,VWS V12.08,2013-10-16 19:52:00,
2013-10-16 14:57:00,72.0,68.9,29.98,South,180,1.0,3.0,90,0.01,,OVC020,0.01,VWS V12.08,2013-10-16 19:57:00,
2013-10-16 15:01:00,72.0,69.2,29.98,North,0,1.0,5.0,91,0.01,,OVC035,0.01,VWS V12.08,2013-10-16 20:01:00,
2013-10-16 15:06:00,72.0,68.9,29.98,WSW,248,3.0,6.0,90,0.01,,OVC035,0.01,VWS V12.08,2013-10-16 20:06:00,
2013-10-16 15:11:00,72.0,68.6,29.98,WNW,292,3.0,3.0,89,0.01,,OVC035,0.01,VWS V12.08,2013-10-16 20:11:00,
2013-10-16 15:16:00,72.0,68.6,29.98,West,270,2.0,5.0,89,0.01,,OVC035,0.01,VWS V12.08,2013-10-16 20:16:00,
2013-10-16 15:21:00,72.0,68.6,29.97,SSW,202,0.0,3.0,89,0.01,,OVC035,0.01,VWS V12.08,2013-10-16 20:21:00,
2013-10-16 15:26:00,72.0,68.6,29.98,West,270,3.0,5.0,89,0.01,,OVC035,0.01,VWS V12.08,2013-10-16 20:26:00,
2013-10-16 15:31:00,72.0,68.3,29.97,WNW,292,3.0,5.0,88,0.00,,OVC035,0.01,VWS V12.08,2013-10-16 20:31:00,
2013-10-16 15:36:00,72.0,68.3,29.98,WSW,248,1.0,1.0,88,0.00,,OVC035,0.01,VWS V12.08,2013-10-16 20:36:00,
2013-10-16 15:41:00,72.0,68.3,29.98,SE,135,1.0,2.0,88,0.00,,OVC050,0.01,VWS V12.08,2013-10-16 20:41:00,
2013-10-16 15:46:00,72.0,68.3,29.97,NW,315,3.0,5.0,88,0.00,,OVC050,0.01,VWS V12.08,2013-10-16 20:46:00,
2013-10-16 15:51:00,72.0,67.9,29.98,West,270,4.0,4.0,87,0.00,,OVC050,0.01,VWS V12.08,2013-10-16 20:51:00,
2013-10-16 15:56:00,72.0,67.9,29.97,NW,315,3.0,5.0,87,0.00,,OVC050,0.01,VWS V12.08,2013-10-16 20:56:00,
2013-10-16 16:01:00,72.0,67.9,29.98,NNW,338,5.0,6.0,87,0.00,,OVC050,0.01,VWS V12.08,2013-10-16 21:01:00,
2013-10-16 16:06:00,72.0,67.9,29.98,South,180,1.0,2.0,87,0.00,,OVC050,0.01,VWS V12.08,2013-10-16 21:06:00,
2013-10-16 16:11:00,72.0,67.9,29.98,SW,225,1.0,3.0,87,0.00,,OVC050,0.01,VWS V12.08,2013-10-16 21:11:00,
2013-10-16 16:16:00,72.0,67.9,29.98,SSE,158,1.0,2.0,87,0.00,,OVC050,0.01,VWS V12.08,2013-10-16 21:16:00,
2013-10-16 16:21:00,72.0,67.9,29.98,WNW,292,3.0,5.0,87,0.00,,OVC050,0.01,VWS V12.08,2013-10-16 21:21:00,
2013-10-16 16:26:00,71.0,66.6,29.98,SW,225,3.0,6.0,86,0.00,,OVC050,0.01,VWS V12.08,2013-10-16 21:26:00,
2013-10-16 16:31:00,71.0,66.6,29.98,WSW,248,5.0,5.0,86,0.00,,OVC050,0.01,VWS V12.08,2013-10-16 21:31:00,
2013-10-16 16:36:00,71.0,66.6,29.98,South,180,2.0,4.0,86,0.00,,OVC050,0.01,VWS V12.08,2013-10-16 21:36:00,
2013-10-16 16:41:00,71.0,66.6,29.98,WSW,248,3.0,3.0,86,0.00,,OVC085,0.01,VWS V12.08,2013-10-16 21:41:00,
2013-10-16 16:46:00,70.0,65.6,29.98,WSW,248,0.0,1.0,86,0.00,,OVC085,0.01,VWS V12.08,2013-10-16 21:46:00,
2013-10-16 16:51:00,70.0,65.6,29.97,SW,225,1.0,2.0,86,0.00,,OVC085,0.01,VWS V12.08,2013-10-16 21:51:00,
2013-10-16 16:56:00,70.0,66.0,29.98,NNE,22,3.0,4.0,87,0.00,,OVC085,0.01,VWS V12.08,2013-10-16 21:56:00,
2013-10-16 17:01:00,70.0,66.0,29.98,SSE,158,1.0,3.0,87,0.00,,OVC085,0.01,VWS V12.08,2013-10-16 22:01:00,
2013-10-16 17:06:00,69.0,65.0,29.98,SSW,202,0.0,1.0,87,0.00,,OVC085,0.01,VWS V12.08,2013-10-16 22:06:00,
2013-10-16 17:11:00,69.0,65.0,29.98,West,270,3.0,6.0,87,0.00,,OVC085,0.01,VWS V12.08,2013-10-16 22:11:00,
2013-10-16 17:16:00,69.0,65.3,29.98,NNE,22,1.0,4.0,88,0.00,,OVC085,0.01,VWS V12.08,2013-10-16 22:16:00,
2013-10-16 17:21:00,69.0,65.3,29.98,ESE,112,1.0,5.0,88,0.00,,OVC085,0.01,VWS V12.08,2013-10-16 22:21:00,
2013-10-16 17:26:00,69.0,65.3,29.98,West,270,4.0,8.0,88,0.00,,OVC085,0.01,VWS V12.08,2013-10-16 22:26:00,
2013-10-16 17:31:00,69.0,65.3,29.98,SW,225,1.0,3.0,88,0.00,,OVC085,0.01,VWS V12.08,2013-10-16 22:31:00,
2013-10-16 17:36:00,68.0,64.0,29.98,WNW,292,5.0,9.0,87,0.00,,OVC085,0.01,VWS V12.08,2013-10-16 22:36:00,
2013-10-16 17:41:00,68.0,64.3,29.98,North,0,6.0,8.0,88,0.00,,OVC011,0.01,VWS V12.08,2013-10-16 22:41:00,
2013-10-16 17:46:00,68.0,64.3,29.98,North,0,1.0,3.0,88,0.00,,OVC011,0.01,VWS V12.08,2013-10-16 22:46:00,
2013-10-16 17:51:00,67.0,63.7,29.98,WSW,248,4.0,5.0,89,0.00,,OVC011,0.01,VWS V12.08,2013-10-16 22:51:00,
2013-10-16 17:56:00,67.0,63.7,29.98,NNE,22,2.0,3.0,89,0.00,,OVC011,0.01,VWS V12.08,2013-10-16 22:56:00,
2013-10-16 18:01:00,67.0,63.7,29.98,West,270,1.0,3.0,89,0.00,,OVC011,0.01,VWS V12.08,2013-10-16 23:01:00,
2013-10-16 18:06:00,67.0,63.7,29.98,WSW,248,0.0,0.0,89,0.00,,OVC011,0.01,VWS V12.08,2013-10-16 23:06:00,
2013-10-16 18:11:00,67.0,63.7,29.99,North,0,4.0,6.0,89,0.00,,OVC011,0.01,VWS V12.08,2013-10-16 23:11:00,
2013-10-16 18:16:00,67.0,63.7,29.99,West,270,3.0,5.0,89,0.00,,OVC011,0.01,VWS V12.08,2013-10-16 23:16:00,
2013-10-16 18:21:00,67.0,63.7,29.99,NE,45,3.0,3.0,89,0.00,,OVC011,0.01,VWS V12.08,2013-10-16 23:21:00,
2013-10-16 18:26:00,67.0,63.7,29.99,ESE,112,0.0,0.0,89,0.00,,OVC011,0.01,VWS V12.08,2013-10-16 23:26:00,
2013-10-16 18:31:00,67.0,63.7,30.00,WSW,248,6.0,7.0,89,0.00,,OVC011,0.01,VWS V12.08,2013-10-16 23:31:00,
2013-10-16 18:36:00,67.0,63.3,30.00,WNW,292,3.0,5.0,88,0.00,,OVC011,0.01,VWS V12.08,2013-10-16 23:36:00,
2013-10-16 18:41:00,67.0,63.7,30.00,North,0,3.0,4.0,89,0.00,,OVC009,0.01,VWS V12.08,2013-10-16 23:41:00,
2013-10-16 18:46:00,67.0,63.3,30.00,North,0,4.0,6.0,88,0.00,,OVC009,0.01,VWS V12.08,2013-10-16 23:46:00,
2013-10-16 18:51:00,67.0,63.3,30.00,NW,315,5.0,5.0,88,0.00,,OVC009,0.01,VWS V12.08,2013-10-16 23:51:00,
2013-10-16 18:56:00,67.0,63.3,30.00,North,0,3.0,5.0,88,0.00,,OVC009,0.01,VWS V12.08,2013-10-16 23:56:00,
2013-10-16 19:01:00,66.0,62.7,30.00,North,0,1.0,1.0,89,0.00,,OVC009,0.01,VWS V12.08,2013-10-17 00:01:00,
2013-10-16 19:06:00,66.0,62.7,30.01,North,0,2.0,3.0,89,0.00,,OVC009,0.01,VWS V12.08,2013-10-17 00:06:00,
2013-10-16 19:11:00,66.0,62.7,30.01,North,0,3.0,3.0,89,0.00,,OVC009,0.01,VWS V12.08,2013-10-17 00:11:00,
2013-10-16 19:16:00,66.0,62.7,30.00,North,0,1.0,3.0,89,0.00,,OVC009,0.01,VWS V12.08,2013-10-17 00:16:00,
2013-10-16 19:21:00,66.0,62.7,30.01,NW,315,4.0,4.0,89,0.00,,OVC009,0.01,VWS V12.08,2013-10-17 00:21:00,
2013-10-16 19:26:00,66.0,62.7,30.01,NNE,22,5.0,6.0,89,0.00,,OVC009,0.01,VWS V12.08,2013-10-17 00:26:00,
2013-10-16 19:31:00,66.0,62.7,30.01,WNW,292,5.0,9.0,89,0.00,,OVC009,0.01,VWS V12.08,2013-10-17 00:31:00,
2013-10-16 19:36:00,66.0,62.7,30.02,SW,225,1.0,2.0,89,0.00,,OVC009,0.01,VWS V12.08,2013-10-17 00:36:00,
2013-10-16 19:41:00,66.0,62.3,30.01,North,0,10.0,11.0,88,0.00,,OVC009,0.01,VWS V12.08,2013-10-17 00:41:00,
2013-10-16 19:46:00,66.0,62.3,30.01,North,0,6.0,6.0,88,0.00,,OVC009,0.01,VWS V12.08,2013-10-17 00:46:00,
2013-10-16 19:51:00,66.0,62.7,30.01,NW,315,5.0,5.0,89,0.00,,OVC009,0.01,VWS V12.08,2013-10-17 00:51:00,
2013-10-16 19:56:00,66.0,62.7,30.02,WNW,292,4.0,5.0,89,0.00,,OVC009,0.01,VWS V12.08,2013-10-17 00:56:00,
2013-10-16 20:01:00,66.0,62.7,30.02,NNE,22,6.0,6.0,89,0.00,,OVC009,0.01,VWS V12.08,2013-10-17 01:01:00,
2013-10-16 20:06:00,65.0,61.7,30.02,North,0,5.0,5.0,89,0.00,,OVC009,0.01,VWS V12.08,2013-10-17 01:06:00,
2013-10-16 20:11:00,65.0,61.7,30.02,ESE,112,1.0,1.0,89,0.00,,OVC009,0.01,VWS V12.08,2013-10-17 01:11:00,
2013-10-16 20:16:00,65.0,61.7,30.02,NNE,22,4.0,5.0,89,0.00,,OVC009,0.01,VWS V12.08,2013-10-17 01:16:00,
2013-10-16 20:21:00,65.0,61.7,30.02,North,0,3.0,3.0,89,0.00,,OVC009,0.01,VWS V12.08,2013-10-17 01:21:00,
2013-10-16 20:26:00,65.0,61.7,30.02,NNE,22,0.0,1.0,89,0.00,,OVC009,0.01,VWS V12.08,2013-10-17 01:26:00,
2013-10-16 20:31:00,65.0,61.7,30.03,East,90,2.0,6.0,89,0.00,,OVC009,0.01,VWS V12.08,2013-10-17 01:31:00,
2013-10-16 20:36:00,65.0,61.7,30.03,SSE,158,0.0,3.0,89,0.00,,OVC009,0.01,VWS V12.08,2013-10-17 01:36:00,
2013-10-16 20:41:00,65.0,62.0,30.03,North,0,5.0,6.0,90,0.00,,OVC009,0.01,VWS V12.08,2013-10-17 01:41:00,
2013-10-16 20:46:00,66.0,62.7,30.04,NNE,22,3.0,5.0,89,0.00,,OVC009,0.01,VWS V12.08,2013-10-17 01:46:00,
2013-10-16 20:51:00,66.0,63.0,30.04,NE,45,1.0,5.0,90,0.00,,OVC009,0.01,VWS V12.08,2013-10-17 01:51:00,
2013-10-16 20:56:00,66.0,62.7,30.04,WSW,248,1.0,5.0,89,0.00,,OVC009,0.01,VWS V12.08,2013-10-17 01:56:00,
2013-10-16 21:01:00,66.0,62.7,30.04,WSW,248,1.0,9.0,89,0.00,,OVC009,0.01,VWS V12.08,2013-10-17 02:01:00,
2013-10-16 21:06:00,66.0,62.7,30.05,SSE,158,3.0,8.0,89,0.00,,OVC009,0.01,VWS V12.08,2013-10-17 02:06:00,
2013-10-16 21:11:00,66.0,62.7,30.05,ENE,68,2.0,6.0,89,0.00,,OVC009,0.01,VWS V12.08,2013-10-17 02:11:00,
2013-10-16 21:16:00,66.0,62.7,30.05,WSW,248,3.0,8.0,89,0.00,,OVC009,0.01,VWS V12.08,2013-10-17 02:16:00,
2013-10-16 21:21:00,65.0,61.7,30.05,WNW,292,3.0,6.0,89,0.00,,OVC009,0.01,VWS V12.08,2013-10-17 02:21:00,
2013-10-16 21:26:00,65.0,61.7,30.05,SSE,158,2.0,6.0,89,0.00,,OVC009,0.01,VWS V12.08,2013-10-17 02:26:00,
2013-10-16 21:31:00,65.0,61.7,30.05,WNW,292,4.0,9.0,89,0.00,,OVC009,0.01,VWS V12.08,2013-10-17 02:31:00,
2013-10-16 21:36:00,65.0,61.7,30.04,North,0,6.0,6.0,89,0.00,,OVC009,0.01,VWS V12.08,2013-10-17 02:36:00,
2013-10-16 21:41:00,65.0,61.7,30.04,SSE,158,0.0,1.0,89,0.00,,OVC011,0.01,VWS V12.08,2013-10-17 02:41:00,
2013-10-16 21:46:00,65.0,61.7,30.05,NE,45,3.0,10.0,89,0.00,,OVC011,0.01,VWS V12.08,2013-10-17 02:46:00,
2013-10-16 21:51:00,65.0,61.7,30.06,North,0,8.0,10.0,89,0.00,,OVC011,0.01,VWS V12.08,2013-10-17 02:51:00,
2013-10-16 21:56:00,65.0,61.7,30.06,NW,315,3.0,10.0,89,0.00,,OVC011,0.01,VWS V12.08,2013-10-17 02:56:00,
2013-10-16 22:01:00,65.0,61.7,30.07,West,270,2.0,4.0,89,0.00,,OVC011,0.01,VWS V12.08,2013-10-17 03:01:00,
2013-10-16 22:06:00,65.0,62.0,30.07,NE,45,2.0,4.0,90,0.00,,OVC011,0.01,VWS V12.08,2013-10-17 03:06:00,
2013-10-16 22:11:00,65.0,62.0,30.06,North,0,3.0,5.0,90,0.00,,OVC011,0.01,VWS V12.08,2013-10-17 03:11:00,
2013-10-16 22:16:00,65.0,61.7,30.06,SE,135,0.0,0.0,89,0.00,,OVC011,0.01,VWS V12.08,2013-10-17 03:16:00,
2013-10-16 22:21:00,65.0,62.0,30.06,NW,315,4.0,4.0,90,0.00,,OVC011,0.01,VWS V12.08,2013-10-17 03:21:00,
2013-10-16 22:26:00,65.0,61.7,30.07,South,180,0.0,1.0,89,0.00,,OVC011,0.01,VWS V12.08,2013-10-17 03:26:00,
2013-10-16 22:31:00,65.0,61.7,30.07,SW,225,0.0,1.0,89,0.00,,OVC011,0.01,VWS V12.08,2013-10-17 03:31:00,
2013-10-16 22:36:00,65.0,62.0,30.08,South,180,0.0,1.0,90,0.00,,OVC011,0.01,VWS V12.08,2013-10-17 03:36:00,
2013-10-16 22:41:00,65.0,62.0,30.07,WNW,292,6.0,6.0,90,0.00,,OVC011,0.01,VWS V12.08,2013-10-17 03:41:00,
2013-10-16 22:46:00,65.0,61.7,30.07,NNE,22,3.0,5.0,89,0.00,,OVC011,0.01,VWS V12.08,2013-10-17 03:46:00,
2013-10-16 22:51:00,65.0,62.0,30.07,NNW,338,5.0,6.0,90,0.00,,OVC011,0.01,VWS V12.08,2013-10-17 03:51:00,
2013-10-16 22:56:00,65.0,62.0,30.07,NNE,22,2.0,3.0,90,0.00,,OVC011,0.01,VWS V12.08,2013-10-17 03:56:00,
2013-10-16 23:01:00,65.0,62.0,30.07,WSW,248,1.0,5.0,90,0.00,,OVC011,0.01,VWS V12.08,2013-10-17 04:01:00,
2013-10-16 23:06:00,65.0,62.0,30.07,NW,315,6.0,6.0,90,0.00,,OVC011,0.01,VWS V12.08,2013-10-17 04:06:00,
2013-10-16 23:11:00,65.0,62.0,30.07,NNE,22,5.0,7.0,90,0.00,,OVC011,0.01,VWS V12.08,2013-10-17 04:11:00,
2013-10-16 23:16:00,65.0,62.0,30.07,NW,315,3.0,5.0,90,0.00,,OVC011,0.01,VWS V12.08,2013-10-17 04:16:00,
2013-10-16 23:21:00,65.0,62.0,30.08,South,180,1.0,2.0,90,0.00,,OVC011,0.01,VWS V12.08,2013-10-17 04:21:00,
2013-10-16 23:26:00,65.0,62.0,30.08,North,0,4.0,7.0,90,0.00,,OVC011,0.01,VWS V12.08,2013-10-17 04:26:00,
2013-10-16 23:31:00,65.0,62.0,30.07,South,180,0.0,1.0,90,0.00,,OVC011,0.01,VWS V12.08,2013-10-17 04:31:00,
2013-10-16 23:36:00,65.0,62.0,30.07,WNW,292,2.0,2.0,90,0.00,,OVC011,0.01,VWS V12.08,2013-10-17 04:36:00,
2013-10-16 23:41:00,64.0,60.7,30.06,North,0,3.0,6.0,89,0.00,,OVC011,0.01,VWS V12.08,2013-10-17 04:41:00,
2013-10-16 23:46:00,64.0,60.7,30.06,NNE,22,3.0,5.0,89,0.00,,OVC011,0.01,VWS V12.08,2013-10-17 04:46:00,
2013-10-16 23:51:00,64.0,60.7,30.07,WNW,292,4.0,5.0,89,0.00,,OVC011,0.01,VWS V12.08,2013-10-17 04:51:00,
2013-10-16 23:56:00,64.0,60.7,30.07,NW,315,4.0,8.0,89,0.00,,OVC011,0.01,VWS V12.08,2013-10-17 04:56:00,